Time;durP1;ratioP1;P1;durP2;ratioP2;P2;SDS_P1;SDS_P2;PMS_P1;PMS_P2;Temp;Humidity;BMP_temperature;BMP_pressure;BME280_temperature;BME280_humidity;BME280_pressure;Samples;Min_cycle;Max_cycle;Signal;HPM_P1;HPM_P2
2022/09/25 00:00:22;;;;;;;9.40;4.30;;;12.10;99.90;;;;;;5120843;28;20089;-75
2022/09/25 00:02:48;;;;;;;8.15;3.50;;;12.10;99.90;;;;;;5119725;28;20030;-75
2022/09/25 00:05:13;;;;;;;15.95;4.47;;;12.10;99.90;;;;;;5123390;28;20472;-76
2022/09/25 00:07:39;;;;;;;10.90;4.15;;;12.10;99.90;;;;;;5124621;28;20099;-74
2022/09/25 00:10:05;;;;;;;8.75;3.47;;;12.10;99.90;;;;;;5124698;27;20019;-76
2022/09/25 00:12:31;;;;;;;11.93;4.20;;;12.10;99.90;;;;;;5124753;28;20031;-75
2022/09/25 00:15:00;;;;;;;8.90;3.38;;;12.10;99.90;;;;;;5124493;28;20101;-75
2022/09/25 00:17:25;;;;;;;5.32;2.90;;;12.10;99.90;;;;;;5124260;28;20035;-74
2022/09/25 00:19:51;;;;;;;8.35;3.30;;;12.10;99.90;;;;;;5124686;28;20079;-75
2022/09/25 00:22:21;;;;;;;7.10;3.20;;;12.10;99.90;;;;;;5124472;28;20035;-74
2022/09/25 00:24:47;;;;;;;12.52;3.75;;;12.10;99.90;;;;;;5123737;28;20067;-74
2022/09/25 00:27:14;;;;;;;11.45;3.58;;;12.10;99.90;;;;;;5123119;28;20065;-74
2022/09/25 00:29:41;;;;;;;7.38;3.92;;;12.10;99.90;;;;;;5123672;28;20023;-75
2022/09/25 00:32:08;;;;;;;7.85;3.03;;;12.20;99.90;;;;;;5124243;27;20024;-75
2022/09/25 00:34:35;;;;;;;16.33;3.83;;;12.20;99.90;;;;;;5122598;28;20452;-74
2022/09/25 00:37:01;;;;;;;6.68;3.20;;;12.20;99.90;;;;;;5122593;28;20024;-75
2022/09/25 00:39:27;;;;;;;11.43;4.40;;;12.20;99.90;;;;;;5123981;28;20023;-74
2022/09/25 00:41:52;;;;;;;8.95;4.07;;;12.20;99.90;;;;;;5123898;28;20044;-74
2022/09/25 00:44:51;;;;;;;7.38;3.47;;;12.10;99.90;;;;;;5123749;28;20036;-74
2022/09/25 00:47:22;;;;;;;7.18;3.42;;;12.20;99.90;;;;;;5123626;28;20049;-74
2022/09/25 00:49:48;;;;;;;11.43;3.08;;;12.10;99.90;;;;;;5123713;28;20030;-73
2022/09/25 00:52:14;;;;;;;9.43;3.40;;;12.10;99.90;;;;;;5122325;28;20387;-74
2022/09/25 00:54:49;;;;;;;9.27;3.30;;;12.10;99.90;;;;;;5121935;28;20092;-75
2022/09/25 00:57:19;;;;;;;5.32;2.83;;;12.10;99.90;;;;;;5122508;28;20020;-74
2022/09/25 00:59:48;;;;;;;5.05;2.83;;;12.10;99.90;;;;;;5122922;28;20116;-73
2022/09/25 01:02:23;;;;;;;5.32;2.60;;;12.10;99.90;;;;;;5122844;28;20075;-75
2022/09/25 01:04:50;;;;;;;8.93;3.17;;;12.20;99.90;;;;;;5123255;28;20514;-73
2022/09/25 01:07:16;;;;;;;10.02;2.65;;;12.20;99.90;;;;;;5123489;28;20028;-73
2022/09/25 01:09:43;;;;;;;6.22;2.70;;;12.10;99.90;;;;;;5123077;28;20019;-74
2022/09/25 01:12:09;;;;;;;8.25;3.40;;;12.10;99.90;;;;;;5122506;28;20030;-74
2022/09/25 01:14:35;;;;;;;5.43;2.15;;;12.20;99.90;;;;;;5122806;28;20110;-75
2022/09/25 01:17:20;;;;;;;8.80;2.20;;;12.10;99.90;;;;;;5123693;28;20620;-73
2022/09/25 01:20:01;;;;;;;6.47;2.72;;;12.10;99.90;;;;;;5122524;28;20031;-73
2022/09/25 01:23:04;;;;;;;7.82;2.53;;;12.10;99.90;;;;;;5121755;28;20023;-74
2022/09/25 01:25:42;;;;;;;9.15;2.15;;;12.10;99.90;;;;;;5121120;28;20035;-73
2022/09/25 01:28:13;;;;;;;3.85;2.22;;;12.10;99.90;;;;;;5121063;28;20023;-73
2022/09/25 01:30:43;;;;;;;7.13;2.40;;;12.10;99.90;;;;;;5122757;28;20020;-72
2022/09/25 01:33:22;;;;;;;4.93;2.10;;;12.10;99.90;;;;;;5123163;28;20016;-75
2022/09/25 01:35:56;;;;;;;4.70;2.45;;;12.10;99.90;;;;;;5122458;28;20028;-74
2022/09/25 01:38:22;;;;;;;;;;;12.10;99.90;;;;;;5121995;28;20031;-73
2022/09/25 01:40:52;;;;;;;7.72;2.72;;;12.10;99.90;;;;;;5122789;28;19990;-74
2022/09/25 01:43:35;;;;;;;16.65;3.40;;;12.10;99.90;;;;;;5122335;28;20051;-73
2022/09/25 01:46:15;;;;;;;8.10;2.50;;;12.10;99.90;;;;;;5121887;28;20024;-71
2022/09/25 01:48:43;;;;;;;7.07;2.55;;;12.10;99.90;;;;;;5122335;28;20028;-73
2022/09/25 01:51:27;;;;;;;4.70;2.47;;;12.00;99.90;;;;;;5122362;28;20035;-74
2022/09/25 01:54:08;;;;;;;7.40;2.95;;;12.20;99.90;;;;;;5122990;28;20058;-71
2022/09/25 01:56:44;;;;;;;7.30;3.00;;;12.10;99.90;;;;;;5122511;28;20059;-71
2022/09/25 01:59:21;;;;;;;13.35;3.35;;;12.10;99.90;;;;;;5122838;28;20031;-72
2022/09/25 02:01:47;;;;;;;9.55;3.03;;;12.10;99.90;;;;;;5120308;28;20019;-71
2022/09/25 02:04:17;;;;;;;8.73;3.08;;;12.10;99.90;;;;;;5122135;28;20036;-73
2022/09/25 02:06:46;;;;;;;8.70;3.33;;;12.10;99.90;;;;;;5121938;28;20026;-71
2022/09/25 02:09:30;;;;;;;7.30;3.05;;;12.10;99.90;;;;;;5121841;28;20111;-73
2022/09/25 02:12:04;;;;;;;12.65;4.15;;;12.10;99.90;;;;;;5120616;28;20028;-72
2022/09/25 02:14:45;;;;;;;10.75;3.20;;;12.20;99.90;;;;;;5122108;28;20016;-71
2022/09/25 02:20:30;;;;;;;9.30;3.15;;;12.20;99.90;;;;;;5120599;28;20023;-71
2022/09/25 02:22:50;;;;;;;7.35;3.42;;;12.20;99.90;;;;;;5121484;28;20042;-72
2022/09/25 02:25:26;;;;;;;11.82;3.65;;;12.20;99.90;;;;;;5121440;28;20040;-71
2022/09/25 02:27:52;;;;;;;8.73;3.45;;;12.20;99.90;;;;;;5122247;28;20022;-72
2022/09/25 02:30:18;;;;;;;10.05;2.97;;;12.20;99.90;;;;;;5121887;28;20032;-72
2022/09/25 02:32:44;;;;;;;7.05;2.88;;;12.20;99.90;;;;;;5121596;28;20019;-71
2022/09/25 02:35:09;;;;;;;7.10;3.40;;;12.30;99.90;;;;;;5122029;28;20015;-72
2022/09/25 02:37:36;;;;;;;9.93;3.17;;;12.20;99.90;;;;;;5121779;28;20020;-71
2022/09/25 02:40:03;;;;;;;11.32;3.05;;;12.20;99.90;;;;;;5121305;28;20053;-71
2022/09/25 02:43:00;;;;;;;12.23;3.17;;;12.20;99.90;;;;;;5121536;28;20075;-70
2022/09/25 02:45:38;;;;;;;13.30;3.45;;;12.20;99.90;;;;;;5121792;28;20067;-71
2022/09/25 02:48:27;;;;;;;8.70;3.10;;;12.20;99.90;;;;;;5121998;28;20121;-73
2022/09/25 02:51:07;;;;;;;10.30;3.30;;;12.20;99.90;;;;;;5121384;28;20078;-70
2022/09/25 02:53:36;;;;;;;11.60;3.70;;;12.20;99.90;;;;;;5121493;28;20031;-74
2022/09/25 02:56:03;;;;;;;8.60;3.58;;;12.20;99.90;;;;;;5121548;28;20027;-70
2022/09/25 02:58:41;;;;;;;9.13;3.97;;;12.20;99.90;;;;;;5121370;28;20041;-74
2022/09/25 03:01:10;;;;;;;4.82;3.00;;;12.20;99.90;;;;;;5121147;28;20023;-72
2022/09/25 03:03:38;;;;;;;19.48;4.57;;;12.20;99.90;;;;;;5120753;28;20034;-72
2022/09/25 03:06:06;;;;;;;15.13;3.45;;;12.20;99.90;;;;;;5121227;28;20027;-71
2022/09/25 03:08:37;;;;;;;11.60;3.85;;;12.20;99.90;;;;;;5121813;28;20023;-72
2022/09/25 03:11:18;;;;;;;13.38;3.65;;;12.20;99.90;;;;;;5121432;28;20066;-72
2022/09/25 03:13:45;;;;;;;8.98;3.83;;;12.20;99.90;;;;;;5121214;28;20027;-72
2022/09/25 03:16:25;;;;;;;10.77;4.07;;;12.20;99.90;;;;;;5121633;28;20034;-70
2022/09/25 03:18:51;;;;;;;7.63;3.15;;;12.20;99.90;;;;;;5121257;28;20022;-71
2022/09/25 03:21:16;;;;;;;9.25;2.78;;;12.20;99.90;;;;;;5121572;28;20027;-71
2022/09/25 03:23:42;;;;;;;13.13;4.07;;;12.20;99.90;;;;;;5120781;28;20143;-72
2022/09/25 03:26:08;;;;;;;8.15;3.03;;;12.20;99.90;;;;;;5119911;28;20130;-73
2022/09/25 03:28:33;;;;;;;12.65;3.40;;;12.20;99.90;;;;;;5121867;28;20035;-72
2022/09/25 03:31:04;;;;;;;13.50;3.60;;;12.20;99.90;;;;;;5121206;28;20047;-72
2022/09/25 03:33:34;;;;;;;8.30;3.17;;;12.20;99.90;;;;;;5120823;28;20047;-71
2022/09/25 03:36:02;;;;;;;8.38;3.28;;;12.20;99.90;;;;;;5120777;28;20099;-71
2022/09/25 03:38:28;;;;;;;8.20;3.17;;;12.20;99.90;;;;;;5124257;28;20031;-71
2022/09/25 03:40:53;;;;;;;5.20;2.60;;;12.20;99.90;;;;;;5125097;28;20023;-70
2022/09/25 03:43:22;;;;;;;8.02;3.15;;;12.20;99.90;;;;;;5124785;28;20048;-70
2022/09/25 03:45:48;;;;;;;7.22;2.88;;;12.20;99.90;;;;;;5124733;28;20051;-70
2022/09/25 03:48:14;;;;;;;8.38;3.97;;;12.10;99.90;;;;;;5125084;28;20031;-72
2022/09/25 03:50:40;;;;;;;10.68;3.40;;;12.10;99.90;;;;;;5125271;28;20024;-70
2022/09/25 03:53:07;;;;;;;12.02;3.22;;;12.10;99.90;;;;;;5124834;28;20071;-73
2022/09/25 03:55:33;;;;;;;7.57;3.45;;;12.10;99.90;;;;;;5123278;28;20050;-71
2022/09/25 03:57:58;;;;;;;3.78;2.40;;;12.00;99.90;;;;;;5124687;28;20391;-70
2022/09/25 04:00:24;;;;;;;6.80;2.58;;;12.10;99.90;;;;;;5124673;28;20551;-70
2022/09/25 04:02:49;;;;;;;9.93;3.10;;;12.10;99.90;;;;;;5124128;28;20032;-71
2022/09/25 04:05:18;;;;;;;6.97;2.70;;;12.10;99.90;;;;;;5125164;28;20039;-71
2022/09/25 04:07:44;;;;;;;4.85;2.55;;;12.00;99.90;;;;;;5123447;28;20027;-70
2022/09/25 04:10:10;;;;;;;7.65;3.08;;;12.00;99.90;;;;;;5123288;28;20022;-72
2022/09/25 04:12:36;;;;;;;6.93;2.28;;;12.00;99.90;;;;;;5124603;28;20031;-71
2022/09/25 04:15:02;;;;;;;7.97;2.90;;;12.00;99.90;;;;;;5124825;28;20031;-69
2022/09/25 04:17:28;;;;;;;5.18;1.90;;;12.00;99.90;;;;;;5124489;28;20533;-70
2022/09/25 04:19:54;;;;;;;15.20;2.88;;;12.00;99.90;;;;;;5124030;28;20043;-71
2022/09/25 04:22:19;;;;;;;5.97;2.42;;;11.90;99.90;;;;;;5122512;28;20391;-71
2022/09/25 04:24:48;;;;;;;7.70;3.13;;;11.90;99.90;;;;;;5124116;28;20031;-70
2022/09/25 04:27:18;;;;;;;11.38;2.88;;;11.90;99.90;;;;;;5124010;27;20108;-72
2022/09/25 04:29:44;;;;;;;6.47;2.45;;;11.90;99.90;;;;;;5123574;28;20015;-72
2022/09/25 04:34:54;;;;;;;13.35;4.20;;;11.90;99.90;;;;;;5123562;28;20946;-71
2022/09/25 04:37:25;;;;;;;3.97;2.03;;;11.90;99.90;;;;;;5123890;28;20028;-71
2022/09/25 04:39:51;;;;;;;9.70;2.70;;;11.80;99.90;;;;;;5124129;28;20430;-71
2022/09/25 04:42:19;;;;;;;15.35;2.97;;;11.80;99.90;;;;;;5123219;28;20420;-71
2022/09/25 04:44:45;;;;;;;6.55;2.50;;;11.80;99.90;;;;;;5123939;28;20065;-72
2022/09/25 04:47:11;;;;;;;7.43;2.78;;;11.80;99.90;;;;;;5122569;28;20110;-70
2022/09/25 04:49:37;;;;;;;6.32;2.42;;;11.80;99.90;;;;;;5122863;28;20027;-71
2022/09/25 04:52:03;;;;;;;5.47;2.47;;;11.80;99.90;;;;;;5123365;28;20052;-72
2022/09/25 04:54:29;;;;;;;11.02;2.38;;;11.70;99.90;;;;;;5124467;28;20032;-70
2022/09/25 04:56:56;;;;;;;5.63;2.53;;;11.80;99.90;;;;;;5122549;28;20062;-70
2022/09/25 04:59:22;;;;;;;6.55;2.45;;;11.70;99.90;;;;;;5123366;28;20031;-70
2022/09/25 05:01:47;;;;;;;10.07;2.97;;;11.70;99.90;;;;;;5123348;28;20092;-70
2022/09/25 05:04:14;;;;;;;7.85;3.10;;;11.70;99.90;;;;;;5120355;28;20062;-72
2022/09/25 05:06:40;;;;;;;4.75;2.50;;;11.70;99.90;;;;;;5123139;28;20050;-70
2022/09/25 05:09:06;;;;;;;3.63;2.13;;;11.70;99.90;;;;;;5123870;28;20023;-70
2022/09/25 05:11:34;;;;;;;6.18;2.35;;;11.70;99.90;;;;;;5123562;28;20514;-71
2022/09/25 05:14:00;;;;;;;3.38;2.25;;;11.70;99.90;;;;;;5123418;28;20098;-70
2022/09/25 05:16:27;;;;;;;5.75;2.38;;;11.70;99.90;;;;;;5123203;28;20032;-72
2022/09/25 05:18:53;;;;;;;6.82;2.67;;;11.60;99.90;;;;;;5118116;28;20016;-72
2022/09/25 05:21:18;;;;;;;7.55;2.40;;;11.60;99.90;;;;;;5123281;28;20105;-71
2022/09/25 05:23:44;;;;;;;7.90;2.80;;;11.60;99.90;;;;;;5122805;28;20035;-70
2022/09/25 05:26:09;;;;;;;6.53;2.72;;;11.60;99.90;;;;;;5123031;28;20091;-72
2022/09/25 05:28:35;;;;;;;7.00;2.75;;;11.60;99.90;;;;;;5123571;28;20054;-72
2022/09/25 05:31:03;;;;;;;5.38;2.85;;;11.60;99.90;;;;;;5123044;28;20030;-71
2022/09/25 05:33:33;;;;;;;6.45;2.53;;;11.60;99.90;;;;;;5120462;28;20114;-72
2022/09/25 05:36:03;;;;;;;7.43;2.53;;;11.50;99.90;;;;;;5122607;28;20031;-72
2022/09/25 05:38:32;;;;;;;3.95;2.33;;;11.50;99.90;;;;;;5120418;28;20023;-72
2022/09/25 05:41:03;;;;;;;5.20;2.92;;;11.50;99.90;;;;;;5121403;28;20394;-73
2022/09/25 05:43:30;;;;;;;4.82;2.65;;;11.50;99.90;;;;;;5119603;28;20054;-72
2022/09/25 05:45:56;;;;;;;10.70;3.55;;;11.40;99.90;;;;;;5122743;28;20030;-72
2022/09/25 05:48:22;;;;;;;11.40;3.00;;;11.40;99.90;;;;;;5122772;28;20020;-72
2022/09/25 05:50:55;;;;;;;6.30;2.65;;;11.40;99.90;;;;;;5122114;28;20112;-71
2022/09/25 05:53:21;;;;;;;10.43;2.75;;;11.40;99.90;;;;;;5120419;28;20088;-71
2022/09/25 05:55:50;;;;;;;8.07;2.72;;;11.40;99.90;;;;;;5121182;28;20024;-73
2022/09/25 05:58:17;;;;;;;4.95;3.05;;;11.40;99.90;;;;;;5122272;28;20049;-71
2022/09/25 06:00:43;;;;;;;8.02;3.05;;;11.40;99.90;;;;;;5120931;28;20641;-72
2022/09/25 06:03:09;;;;;;;4.53;2.45;;;11.40;99.90;;;;;;5117364;28;20023;-71
2022/09/25 06:05:35;;;;;;;7.88;3.38;;;11.40;99.90;;;;;;5119031;28;20099;-73
2022/09/25 06:08:01;;;;;;;9.48;3.25;;;11.40;99.90;;;;;;5122677;28;20028;-72
2022/09/25 06:10:27;;;;;;;6.47;2.95;;;11.40;99.90;;;;;;5120522;28;20032;-73
2022/09/25 06:12:57;;;;;;;5.60;2.60;;;11.40;99.90;;;;;;5120501;28;20032;-71
2022/09/25 06:15:27;;;;;;;6.13;3.05;;;11.40;99.90;;;;;;5122141;28;20091;-71
2022/09/25 06:17:53;;;;;;;5.53;3.33;;;11.50;99.90;;;;;;5119274;28;20028;-71
2022/09/25 06:20:20;;;;;;;7.68;3.30;;;11.50;99.90;;;;;;5121464;28;20018;-71
2022/09/25 06:22:54;;;;;;;11.52;3.05;;;11.50;99.90;;;;;;5120719;28;20028;-74
2022/09/25 06:25:24;;;;;;;6.82;3.17;;;11.50;99.90;;;;;;5121225;28;20369;-73
2022/09/25 06:27:53;;;;;;;9.82;3.70;;;11.50;99.90;;;;;;5119496;28;20023;-72
2022/09/25 06:30:20;;;;;;;11.38;3.80;;;11.50;99.90;;;;;;5121794;28;20020;-71
2022/09/25 06:32:46;;;;;;;13.50;3.85;;;11.50;99.90;;;;;;5121211;28;20019;-73
2022/09/25 06:35:13;;;;;;;9.35;4.47;;;11.50;99.90;;;;;;5120765;28;20023;-72
2022/09/25 06:37:39;;;;;;;12.48;4.88;;;11.50;99.90;;;;;;5120477;28;20126;-71
2022/09/25 06:40:07;;;;;;;11.13;4.15;;;11.50;99.90;;;;;;5120959;28;20024;-71
2022/09/25 06:42:34;;;;;;;8.98;4.07;;;11.50;99.90;;;;;;5119369;28;20142;-73
2022/09/25 06:45:00;;;;;;;8.75;3.67;;;11.50;99.90;;;;;;5119644;28;20039;-71
2022/09/25 06:47:26;;;;;;;14.85;4.30;;;11.50;99.90;;;;;;5120549;28;20032;-71
2022/09/25 06:49:51;;;;;;;5.10;3.15;;;11.50;99.90;;;;;;5120451;28;20036;-71
2022/09/25 06:52:17;;;;;;;6.18;3.42;;;11.50;99.90;;;;;;5121142;28;20027;-71
2022/09/25 06:54:42;;;;;;;11.50;3.45;;;11.50;99.90;;;;;;5119007;28;20502;-71
2022/09/25 06:57:10;;;;;;;12.27;3.53;;;11.50;99.90;;;;;;5116692;28;20122;-71
2022/09/25 06:59:36;;;;;;;10.77;3.75;;;11.50;99.90;;;;;;5119558;28;20020;-71
2022/09/25 07:04:50;;;;;;;16.45;3.92;;;11.60;99.90;;;;;;5120319;28;20046;-71
2022/09/25 07:07:19;;;;;;;9.90;3.83;;;11.70;99.90;;;;;;5119225;28;20024;-73
2022/09/25 07:09:47;;;;;;;6.70;3.30;;;11.70;99.90;;;;;;5119485;28;20020;-72
2022/09/25 07:12:17;;;;;;;8.15;3.40;;;11.80;99.90;;;;;;5123144;28;20032;-71
2022/09/25 07:14:45;;;;;;;6.93;3.83;;;11.80;99.90;;;;;;5125614;28;20026;-74
2022/09/25 07:17:12;;;;;;;6.78;3.17;;;11.80;99.90;;;;;;5125223;28;20024;-74
2022/09/25 07:19:37;;;;;;;7.95;3.53;;;11.80;99.90;;;;;;5125284;28;20056;-74
2022/09/25 07:22:03;;;;;;;6.32;3.35;;;11.70;99.90;;;;;;5114363;28;20091;-73
2022/09/25 07:24:30;;;;;;;17.90;4.25;;;11.80;99.90;;;;;;5121556;28;20058;-73
2022/09/25 07:26:55;;;;;;;9.43;3.25;;;11.80;99.90;;;;;;5122057;28;20035;-74
2022/09/25 07:29:21;;;;;;;10.40;3.85;;;11.80;99.90;;;;;;5123281;28;20034;-73
2022/09/25 07:31:47;;;;;;;7.95;3.55;;;11.80;99.90;;;;;;5123133;28;20027;-73
2022/09/25 07:34:14;;;;;;;13.00;3.53;;;11.90;99.90;;;;;;5123243;28;20789;-72
2022/09/25 07:36:41;;;;;;;6.75;3.78;;;11.90;99.90;;;;;;5121374;28;20200;-74
2022/09/25 07:39:07;;;;;;;8.73;3.80;;;11.90;99.90;;;;;;5123159;28;20030;-73
2022/09/25 07:41:33;;;;;;;9.07;3.75;;;11.90;99.90;;;;;;5123719;28;20035;-73
2022/09/25 07:43:59;;;;;;;9.60;3.83;;;12.00;99.90;;;;;;5121770;28;20054;-73
2022/09/25 07:46:28;;;;;;;9.68;3.92;;;12.00;99.90;;;;;;5119078;28;20023;-75
2022/09/25 07:48:53;;;;;;;8.82;3.90;;;12.10;99.90;;;;;;5123444;28;20046;-75
2022/09/25 07:51:22;;;;;;;7.22;3.28;;;12.10;99.90;;;;;;5124484;28;20020;-74
2022/09/25 07:53:48;;;;;;;9.50;4.25;;;12.10;99.90;;;;;;5123582;28;20035;-73
2022/09/25 07:56:14;;;;;;;8.43;3.22;;;12.20;99.90;;;;;;5121981;28;20030;-73
2022/09/25 07:58:41;;;;;;;11.52;4.20;;;12.30;99.90;;;;;;5124823;28;20028;-73
2022/09/25 08:01:11;;;;;;;6.75;3.38;;;12.30;99.90;;;;;;5122393;28;20532;-73
2022/09/25 08:03:36;;;;;;;8.38;3.85;;;12.30;99.90;;;;;;5121302;28;20039;-74
2022/09/25 08:06:12;;;;;;;9.85;3.45;;;12.40;99.90;;;;;;5123920;28;20039;-74
2022/09/25 08:08:40;;;;;;;6.25;3.13;;;12.50;99.90;;;;;;5120378;28;20472;-74
2022/09/25 08:11:10;;;;;;;5.60;3.17;;;12.50;99.90;;;;;;5120365;28;20118;-73
2022/09/25 08:13:39;;;;;;;12.40;3.13;;;12.60;99.90;;;;;;5121233;28;20063;-75
2022/09/25 08:16:10;;;;;;;6.05;2.65;;;12.50;99.90;;;;;;5121738;28;20024;-75
2022/09/25 08:18:37;;;;;;;5.88;3.03;;;12.60;99.90;;;;;;5117472;28;20100;-74
2022/09/25 08:21:04;;;;;;;9.30;3.05;;;12.60;99.90;;;;;;5120114;28;20035;-75
2022/09/25 08:23:31;;;;;;;4.43;2.35;;;12.60;99.90;;;;;;5120628;28;20033;-74
2022/09/25 08:25:57;;;;;;;3.10;2.05;;;12.70;99.90;;;;;;5120485;28;20031;-73
2022/09/25 08:28:23;;;;;;;4.72;2.38;;;12.70;99.90;;;;;;5122279;28;20042;-74
2022/09/25 08:30:49;;;;;;;5.40;2.75;;;12.70;99.90;;;;;;5122173;28;20028;-73
2022/09/25 08:33:15;;;;;;;10.05;2.58;;;12.70;99.90;;;;;;5121732;28;20043;-73
2022/09/25 08:35:41;;;;;;;8.60;3.08;;;12.70;99.90;;;;;;5121266;27;20034;-73
2022/09/25 08:38:11;;;;;;;12.18;2.85;;;12.80;99.90;;;;;;5117516;28;20113;-72
2022/09/25 08:40:43;;;;;;;4.35;2.28;;;12.80;99.90;;;;;;5123034;28;20031;-73
2022/09/25 08:43:16;;;;;;;6.15;2.05;;;12.70;99.90;;;;;;5121816;28;20082;-73
2022/09/25 08:51:21;;;;;;;4.40;1.98;;;13.00;99.90;;;;;;5120857;28;20103;-72
2022/09/25 08:53:47;;;;;;;10.90;2.03;;;13.10;99.90;;;;;;5120879;28;20034;-74
2022/09/25 08:56:16;;;;;;;7.18;1.80;;;13.10;99.90;;;;;;5121920;28;20118;-71
2022/09/25 08:59:01;;;;;;;13.60;2.35;;;13.20;99.90;;;;;;5121361;28;20046;-72
2022/09/25 09:01:28;;;;;;;;;;;13.20;99.90;;;;;;5120529;28;20051;-72
2022/09/25 09:04:04;;;;;;;3.30;1.52;;;13.30;99.90;;;;;;5123198;28;19920;-72
2022/09/25 09:06:31;;;;;;;4.72;1.92;;;13.30;99.90;;;;;;5123966;28;20031;-71
2022/09/25 09:09:12;;;;;;;4.28;2.05;;;13.30;99.90;;;;;;5122273;28;20029;-71
2022/09/25 09:11:43;;;;;;;3.40;1.83;;;13.40;99.90;;;;;;5122695;28;20016;-71
2022/09/25 09:14:15;;;;;;;6.30;1.50;;;13.40;99.90;;;;;;5122580;28;20105;-73
2022/09/25 09:16:59;;;;;;;6.18;1.70;;;13.40;99.90;;;;;;5120413;28;20027;-72
2022/09/25 09:19:26;;;;;;;7.97;1.73;;;13.50;99.90;;;;;;5121500;28;20053;-70
2022/09/25 09:22:01;;;;;;;3.75;1.85;;;13.50;99.90;;;;;;5122298;28;20099;-71
2022/09/25 09:24:53;;;;;;;4.65;1.50;;;13.60;99.90;;;;;;5121571;28;20027;-71
2022/09/25 09:27:38;;;;;;;2.90;1.27;;;13.60;99.90;;;;;;5122007;28;20027;-69
2022/09/25 09:30:19;;;;;;;3.10;1.40;;;13.60;99.90;;;;;;5123267;28;20028;-71
2022/09/25 09:33:09;;;;;;;4.18;1.65;;;13.70;99.90;;;;;;5121837;28;20058;-70
2022/09/25 09:36:05;;;;;;;5.68;1.95;;;13.80;99.90;;;;;;5120478;28;20032;-71
2022/09/25 09:39:01;;;;;;;7.97;1.55;;;13.80;99.90;;;;;;5123691;28;20041;-71
2022/09/25 09:41:32;;;;;;;2.47;1.38;;;13.80;99.90;;;;;;5121519;28;20088;-72
2022/09/25 09:44:02;;;;;;;5.07;1.23;;;13.90;99.90;;;;;;5121424;28;20036;-71
2022/09/25 09:46:31;;;;;;;5.30;1.50;;;13.90;99.90;;;;;;5122742;28;20023;-69
2022/09/25 09:49:21;;;;;;;3.95;1.25;;;13.90;99.90;;;;;;5120798;28;20032;-69
2022/09/25 09:52:08;;;;;;;7.20;1.40;;;14.00;99.90;;;;;;5122532;28;20051;-71
2022/09/25 09:54:45;;;;;;;2.30;0.90;;;14.10;99.90;;;;;;5122694;28;20027;-74
2022/09/25 09:57:25;;;;;;;6.10;1.10;;;14.20;99.90;;;;;;5122129;28;20042;-71
2022/09/25 10:00:05;;;;;;;3.33;1.60;;;14.20;99.90;;;;;;5121308;28;20026;-70
2022/09/25 10:02:35;;;;;;;5.78;1.25;;;14.40;99.90;;;;;;5121836;28;20020;-72
2022/09/25 10:05:07;;;;;;;7.20;1.42;;;14.70;99.90;;;;;;5120911;28;20024;-71
2022/09/25 10:07:36;;;;;;;1.60;0.95;;;14.90;99.90;;;;;;5121540;28;20023;-73
2022/09/25 10:10:13;;;;;;;2.63;0.90;;;14.90;99.90;;;;;;5121010;28;20092;-71
2022/09/25 10:12:44;;;;;;;5.78;1.05;;;15.00;99.90;;;;;;5120176;28;20036;-72
2022/09/25 10:15:46;;;;;;;5.20;1.20;;;15.10;99.90;;;;;;5115234;28;20035;-73
2022/09/25 10:18:14;;;;;;;1.80;0.93;;;15.20;99.90;;;;;;5111391;28;20164;-72
2022/09/25 10:21:08;;;;;;;3.85;1.27;;;15.20;99.90;;;;;;5113735;28;20023;-73
2022/09/25 10:23:47;;;;;;;2.47;1.20;;;15.30;99.90;;;;;;5117996;28;20023;-75
2022/09/25 10:26:29;;;;;;;1.85;1.00;;;15.40;99.90;;;;;;5122010;28;20024;-76
2022/09/25 10:28:57;;;;;;;7.85;1.38;;;15.40;99.90;;;;;;5121516;28;20050;-72
2022/09/25 10:31:26;;;;;;;2.33;1.10;;;15.40;99.90;;;;;;5121019;28;20031;-74
2022/09/25 10:34:28;;;;;;;6.03;1.33;;;15.40;99.90;;;;;;5121440;28;20031;-72
2022/09/25 10:36:54;;;;;;;3.65;1.00;;;15.40;99.90;;;;;;5117607;28;20126;-75
2022/09/25 10:39:33;;;;;;;5.10;1.13;;;15.40;99.90;;;;;;5119194;28;20055;-73
2022/09/25 10:42:00;;;;;;;4.55;1.02;;;15.30;99.90;;;;;;5120294;28;20063;-73
2022/09/25 10:44:37;;;;;;;0.60;0.40;;;15.20;99.90;;;;;;5121162;28;20046;-71
2022/09/25 10:50:12;;;;;;;1.67;0.75;;;14.90;99.90;;;;;;5121796;28;20038;-74
2022/09/25 10:53:06;;;;;;;2.80;0.80;;;14.70;99.90;;;;;;5120171;28;20031;-73
2022/09/25 10:55:40;;;;;;;3.03;0.98;;;14.50;99.90;;;;;;5117925;28;20070;-73
2022/09/25 10:58:08;;;;;;;9.10;1.35;;;14.40;99.90;;;;;;5120166;28;20096;-75
2022/09/25 11:00:40;;;;;;;4.47;1.42;;;14.30;99.90;;;;;;5121316;28;20020;-72
2022/09/25 11:03:06;;;;;;;2.03;1.13;;;14.30;99.90;;;;;;5120884;28;20027;-74
2022/09/25 11:05:35;;;;;;;3.80;1.02;;;14.20;99.90;;;;;;5119836;28;20052;-74
2022/09/25 11:08:04;;;;;;;7.82;1.30;;;14.20;99.90;;;;;;5121597;28;20081;-74
2022/09/25 11:10:35;;;;;;;4.45;0.93;;;14.10;99.90;;;;;;5120947;28;20024;-73
2022/09/25 11:13:07;;;;;;;1.65;0.90;;;14.10;99.90;;;;;;5121088;28;20043;-75
2022/09/25 11:15:35;;;;;;;3.45;1.48;;;14.10;99.90;;;;;;5120993;28;20039;-73
2022/09/25 11:18:05;;;;;;;5.10;1.25;;;14.20;99.90;;;;;;5121386;28;20078;-73
2022/09/25 11:20:31;;;;;;;2.83;1.10;;;14.20;99.90;;;;;;5121736;28;20471;-73
2022/09/25 11:23:31;;;;;;;2.92;1.10;;;14.20;99.90;;;;;;5120929;28;20529;-75
2022/09/25 11:26:18;;;;;;;3.80;1.40;;;14.20;99.90;;;;;;5116718;28;20062;-76
2022/09/25 11:28:54;;;;;;;8.85;1.42;;;14.30;99.90;;;;;;5119706;28;20040;-75
2022/09/25 11:31:40;;;;;;;2.05;1.13;;;14.40;99.90;;;;;;5120861;28;20020;-74
2022/09/25 11:34:34;;;;;;;3.90;1.05;;;14.50;99.90;;;;;;5121011;28;20726;-74
2022/09/25 11:37:09;;;;;;;4.53;0.85;;;14.60;99.90;;;;;;5120691;28;20040;-74
2022/09/25 11:42:50;;;;;;;6.55;1.23;;;14.90;99.90;;;;;;5120795;28;20082;-74
2022/09/25 11:45:19;;;;;;;3.15;1.38;;;15.00;99.90;;;;;;5120160;28;20103;-73
2022/09/25 11:47:52;;;;;;;4.70;1.30;;;15.10;99.90;;;;;;5119771;28;20019;-75
2022/09/25 11:50:21;;;;;;;8.65;1.10;;;15.20;99.90;;;;;;5120108;28;20027;-75
2022/09/25 11:52:59;;;;;;;7.85;1.40;;;15.40;99.90;;;;;;5119463;28;20409;-75
2022/09/25 11:55:45;;;;;;;3.35;1.13;;;15.50;99.90;;;;;;5121395;28;20019;-73
2022/09/25 11:58:33;;;;;;;4.40;0.73;;;15.60;99.90;;;;;;5123154;28;20027;-75
2022/09/25 12:01:04;;;;;;;6.65;1.30;;;15.70;99.90;;;;;;5124325;28;20059;-75
2022/09/25 12:03:40;;;;;;;4.28;1.50;;;15.80;99.90;;;;;;5124751;28;20020;-75
2022/09/25 12:06:15;;;;;;;2.08;1.17;;;15.90;99.90;;;;;;5123372;28;20020;-75
2022/09/25 12:08:56;;;;;;;7.82;1.63;;;16.00;99.90;;;;;;5123915;28;20061;-75
2022/09/25 12:11:27;;;;;;;2.65;1.33;;;16.10;99.90;;;;;;5124516;28;20455;-73
2022/09/25 12:14:34;;;;;;;2.42;1.30;;;16.10;99.90;;;;;;5123605;27;20032;-73
2022/09/25 12:17:08;;;;;;;5.32;1.25;;;16.00;99.90;;;;;;5120522;28;20040;-75
2022/09/25 12:20:13;;;;;;;5.32;1.88;;;15.90;99.90;;;;;;5121340;27;20546;-74
2022/09/25 12:22:47;;;;;;;3.83;1.70;;;15.90;99.90;;;;;;5123977;28;20475;-74
2022/09/25 12:25:46;;;;;;;1.27;1.02;;;15.70;99.90;;;;;;5121037;28;20544;-73
2022/09/25 12:28:32;;;;;;;5.38;0.75;;;15.70;99.90;;;;;;5104256;28;20047;-73
2022/09/25 12:31:17;;;;;;;4.65;1.38;;;15.60;99.90;;;;;;5123195;28;20130;-74
2022/09/25 12:34:03;;;;;;;3.90;1.02;;;15.60;99.90;;;;;;5123556;28;20031;-74
2022/09/25 12:36:46;;;;;;;9.20;1.23;;;15.50;99.90;;;;;;5122896;27;20428;-74
2022/09/25 12:39:40;;;;;;;4.18;1.00;;;15.50;99.90;;;;;;5123485;28;20020;-73
2022/09/25 12:42:31;;;;;;;8.18;1.20;;;15.40;99.90;;;;;;5122596;28;20419;-74
2022/09/25 12:45:02;;;;;;;3.75;1.58;;;15.40;99.90;;;;;;5121765;28;20051;-73
2022/09/25 12:47:36;;;;;;;3.25;1.27;;;15.50;99.90;;;;;;5122842;28;20024;-74
2022/09/25 12:50:01;;;;;;;1.83;0.98;;;15.50;99.90;;;;;;5122581;28;20043;-73
2022/09/25 12:52:42;;;;;;;2.83;1.08;;;15.50;99.90;;;;;;5120967;28;20061;-74
2022/09/25 12:55:24;;;;;;;5.28;1.33;;;15.60;99.90;;;;;;5123991;28;20099;-73
2022/09/25 12:57:54;;;;;;;1.45;0.75;;;15.60;99.90;;;;;;5124178;28;20169;-73
2022/09/25 13:00:24;;;;;;;6.88;1.85;;;15.70;99.90;;;;;;5122359;28;20088;-73
2022/09/25 13:03:02;;;;;;;6.15;2.08;;;15.80;99.90;;;;;;5123153;28;20467;-75
2022/09/25 13:05:33;;;;;;;7.20;1.17;;;16.10;99.90;;;;;;5122375;28;20028;-73
2022/09/25 13:08:15;;;;;;;3.88;0.95;;;16.30;99.90;;;;;;5121990;28;20107;-73
2022/09/25 13:10:47;;;;;;;1.10;0.90;;;16.30;99.90;;;;;;5122093;28;20456;-78
2022/09/25 13:13:20;;;;;;;2.35;0.70;;;16.30;99.90;;;;;;5123443;28;20043;-74
2022/09/25 13:15:54;;;;;;;3.67;0.88;;;16.30;99.90;;;;;;5123296;28;20016;-75
2022/09/25 13:18:21;;;;;;;1.55;0.63;;;16.30;99.90;;;;;;5121991;28;20026;-75
2022/09/25 13:20:51;;;;;;;2.20;0.73;;;16.30;99.90;;;;;;5122940;28;20027;-74
2022/09/25 13:23:37;;;;;;;2.05;1.10;;;16.60;99.90;;;;;;5122088;28;20028;-74
2022/09/25 13:26:25;;;;;;;7.32;1.08;;;16.80;99.90;;;;;;5122191;28;20039;-76
2022/09/25 13:28:54;;;;;;;5.53;1.08;;;16.90;99.90;;;;;;5121826;28;20024;-73